sensor_id;sensor_type;location;lat;lon;timestamp;P1;durP1;ratioP1;P2;durP2;ratioP2
47844;SDS011;33605;48.822;8.796;2023-05-19T00:00:59;3.00;;;2.77;;
47844;SDS011;33605;48.822;8.796;2023-05-19T00:03:25;9.07;;;2.97;;
47844;SDS011;33605;48.822;8.796;2023-05-19T00:05:52;6.90;;;2.83;;
47844;SDS011;33605;48.822;8.796;2023-05-19T00:08:18;6.73;;;2.80;;
47844;SDS011;33605;48.822;8.796;2023-05-19T00:10:45;5.33;;;2.93;;
47844;SDS011;33605;48.822;8.796;2023-05-19T00:13:11;5.00;;;3.00;;
47844;SDS011;33605;48.822;8.796;2023-05-19T00:15:37;5.03;;;2.70;;
47844;SDS011;33605;48.822;8.796;2023-05-19T00:18:04;4.77;;;2.60;;
47844;SDS011;33605;48.822;8.796;2023-05-19T00:20:32;6.57;;;3.60;;
47844;SDS011;33605;48.822;8.796;2023-05-19T00:22:58;6.40;;;3.27;;
47844;SDS011;33605;48.822;8.796;2023-05-19T00:25:25;5.90;;;2.90;;
47844;SDS011;33605;48.822;8.796;2023-05-19T00:27:51;3.50;;;2.63;;
47844;SDS011;33605;48.822;8.796;2023-05-19T00:30:17;7.40;;;3.00;;
47844;SDS011;33605;48.822;8.796;2023-05-19T00:32:43;5.23;;;3.50;;
47844;SDS011;33605;48.822;8.796;2023-05-19T00:35:09;7.03;;;3.10;;
47844;SDS011;33605;48.822;8.796;2023-05-19T00:37:35;3.03;;;2.67;;
47844;SDS011;33605;48.822;8.796;2023-05-19T00:40:01;6.23;;;3.00;;
47844;SDS011;33605;48.822;8.796;2023-05-19T00:42:29;10.50;;;3.20;;
47844;SDS011;33605;48.822;8.796;2023-05-19T00:44:56;4.70;;;2.90;;
47844;SDS011;33605;48.822;8.796;2023-05-19T00:47:22;7.33;;;3.00;;
47844;SDS011;33605;48.822;8.796;2023-05-19T00:49:48;5.10;;;3.40;;
47844;SDS011;33605;48.822;8.796;2023-05-19T00:52:14;3.07;;;2.67;;
47844;SDS011;33605;48.822;8.796;2023-05-19T00:54:41;3.80;;;2.60;;
47844;SDS011;33605;48.822;8.796;2023-05-19T00:57:08;7.43;;;2.90;;
47844;SDS011;33605;48.822;8.796;2023-05-19T00:59:34;4.63;;;2.83;;
47844;SDS011;33605;48.822;8.796;2023-05-19T01:02:00;5.23;;;3.00;;
47844;SDS011;33605;48.822;8.796;2023-05-19T01:04:26;4.73;;;2.77;;
47844;SDS011;33605;48.822;8.796;2023-05-19T01:06:53;4.17;;;2.63;;
47844;SDS011;33605;48.822;8.796;2023-05-19T01:09:20;5.93;;;2.60;;
47844;SDS011;33605;48.822;8.796;2023-05-19T01:11:46;8.73;;;2.90;;
47844;SDS011;33605;48.822;8.796;2023-05-19T01:14:13;4.70;;;3.13;;
47844;SDS011;33605;48.822;8.796;2023-05-19T01:16:39;2.93;;;2.40;;
47844;SDS011;33605;48.822;8.796;2023-05-19T01:32:00;3.67;;;2.70;;
47844;SDS011;33605;48.822;8.796;2023-05-19T01:34:28;3.90;;;2.50;;
47844;SDS011;33605;48.822;8.796;2023-05-19T01:36:55;3.33;;;2.83;;
47844;SDS011;33605;48.822;8.796;2023-05-19T01:39:23;6.67;;;2.93;;
47844;SDS011;33605;48.822;8.796;2023-05-19T01:41:50;4.87;;;2.20;;
47844;SDS011;33605;48.822;8.796;2023-05-19T01:44:16;7.03;;;2.57;;
47844;SDS011;33605;48.822;8.796;2023-05-19T01:46:43;7.13;;;2.97;;
47844;SDS011;33605;48.822;8.796;2023-05-19T01:49:09;5.03;;;3.70;;
47844;SDS011;33605;48.822;8.796;2023-05-19T01:51:35;7.47;;;3.20;;
47844;SDS011;33605;48.822;8.796;2023-05-19T01:54:01;8.20;;;3.83;;
47844;SDS011;33605;48.822;8.796;2023-05-19T01:56:40;4.73;;;2.90;;
47844;SDS011;33605;48.822;8.796;2023-05-19T01:59:15;3.73;;;2.90;;
47844;SDS011;33605;48.822;8.796;2023-05-19T02:04:18;3.27;;;2.83;;
47844;SDS011;33605;48.822;8.796;2023-05-19T02:09:21;5.60;;;2.90;;
47844;SDS011;33605;48.822;8.796;2023-05-19T02:11:52;4.17;;;2.77;;
47844;SDS011;33605;48.822;8.796;2023-05-19T02:14:23;4.20;;;2.90;;
47844;SDS011;33605;48.822;8.796;2023-05-19T02:16:50;6.07;;;2.80;;
47844;SDS011;33605;48.822;8.796;2023-05-19T02:19:24;2.60;;;2.40;;
47844;SDS011;33605;48.822;8.796;2023-05-19T02:21:50;6.70;;;2.60;;
47844;SDS011;33605;48.822;8.796;2023-05-19T02:24:17;5.20;;;2.67;;
47844;SDS011;33605;48.822;8.796;2023-05-19T02:26:44;5.40;;;2.43;;
47844;SDS011;33605;48.822;8.796;2023-05-19T02:29:10;3.10;;;2.60;;
47844;SDS011;33605;48.822;8.796;2023-05-19T02:31:36;5.83;;;2.80;;
47844;SDS011;33605;48.822;8.796;2023-05-19T02:34:02;5.73;;;3.17;;
47844;SDS011;33605;48.822;8.796;2023-05-19T02:36:30;5.73;;;3.33;;
47844;SDS011;33605;48.822;8.796;2023-05-19T02:38:58;6.60;;;2.80;;
47844;SDS011;33605;48.822;8.796;2023-05-19T02:41:25;4.87;;;2.67;;
47844;SDS011;33605;48.822;8.796;2023-05-19T02:43:51;6.50;;;2.60;;
47844;SDS011;33605;48.822;8.796;2023-05-19T02:46:17;4.40;;;2.80;;
47844;SDS011;33605;48.822;8.796;2023-05-19T02:48:43;2.50;;;2.20;;
47844;SDS011;33605;48.822;8.796;2023-05-19T02:51:09;3.60;;;2.97;;
47844;SDS011;33605;48.822;8.796;2023-05-19T02:53:35;5.53;;;3.00;;
47844;SDS011;33605;48.822;8.796;2023-05-19T02:56:01;4.37;;;3.37;;
47844;SDS011;33605;48.822;8.796;2023-05-19T02:58:27;4.70;;;2.53;;
47844;SDS011;33605;48.822;8.796;2023-05-19T03:00:54;3.67;;;2.63;;
47844;SDS011;33605;48.822;8.796;2023-05-19T03:03:20;4.40;;;2.67;;
47844;SDS011;33605;48.822;8.796;2023-05-19T03:05:46;5.37;;;3.10;;
47844;SDS011;33605;48.822;8.796;2023-05-19T03:08:12;4.40;;;2.80;;
47844;SDS011;33605;48.822;8.796;2023-05-19T03:10:38;4.20;;;3.20;;
47844;SDS011;33605;48.822;8.796;2023-05-19T03:13:05;4.70;;;2.50;;
47844;SDS011;33605;48.822;8.796;2023-05-19T03:15:31;3.00;;;2.13;;
47844;SDS011;33605;48.822;8.796;2023-05-19T03:17:58;3.10;;;2.60;;
47844;SDS011;33605;48.822;8.796;2023-05-19T03:20:24;6.13;;;3.10;;
47844;SDS011;33605;48.822;8.796;2023-05-19T03:22:50;5.20;;;2.67;;
47844;SDS011;33605;48.822;8.796;2023-05-19T03:25:16;4.07;;;2.60;;
47844;SDS011;33605;48.822;8.796;2023-05-19T03:27:42;3.30;;;2.50;;
47844;SDS011;33605;48.822;8.796;2023-05-19T03:30:08;4.63;;;3.30;;
47844;SDS011;33605;48.822;8.796;2023-05-19T03:32:34;5.53;;;2.70;;
47844;SDS011;33605;48.822;8.796;2023-05-19T03:35:02;3.03;;;2.67;;
47844;SDS011;33605;48.822;8.796;2023-05-19T03:37:28;4.70;;;3.03;;
47844;SDS011;33605;48.822;8.796;2023-05-19T03:39:54;7.87;;;3.07;;
47844;SDS011;33605;48.822;8.796;2023-05-19T03:42:21;4.93;;;2.67;;
47844;SDS011;33605;48.822;8.796;2023-05-19T03:44:47;5.47;;;3.00;;
47844;SDS011;33605;48.822;8.796;2023-05-19T03:47:13;4.43;;;2.67;;
47844;SDS011;33605;48.822;8.796;2023-05-19T03:49:39;3.37;;;2.40;;
47844;SDS011;33605;48.822;8.796;2023-05-19T03:52:05;4.60;;;3.10;;
47844;SDS011;33605;48.822;8.796;2023-05-19T03:54:31;4.13;;;2.60;;
47844;SDS011;33605;48.822;8.796;2023-05-19T03:56:57;5.33;;;2.90;;
47844;SDS011;33605;48.822;8.796;2023-05-19T03:59:23;4.60;;;2.90;;
47844;SDS011;33605;48.822;8.796;2023-05-19T04:01:49;4.77;;;2.17;;
47844;SDS011;33605;48.822;8.796;2023-05-19T04:04:16;5.83;;;3.63;;
47844;SDS011;33605;48.822;8.796;2023-05-19T04:06:42;6.20;;;2.70;;
47844;SDS011;33605;48.822;8.796;2023-05-19T04:09:12;7.87;;;2.70;;
47844;SDS011;33605;48.822;8.796;2023-05-19T04:11:39;3.37;;;2.77;;
47844;SDS011;33605;48.822;8.796;2023-05-19T04:14:05;4.40;;;2.83;;
47844;SDS011;33605;48.822;8.796;2023-05-19T04:16:32;6.20;;;3.07;;
47844;SDS011;33605;48.822;8.796;2023-05-19T04:18:58;6.57;;;2.80;;
47844;SDS011;33605;48.822;8.796;2023-05-19T04:21:24;4.13;;;2.77;;
47844;SDS011;33605;48.822;8.796;2023-05-19T04:23:50;6.33;;;2.67;;
47844;SDS011;33605;48.822;8.796;2023-05-19T04:26:16;5.63;;;3.37;;
47844;SDS011;33605;48.822;8.796;2023-05-19T04:28:45;3.10;;;2.80;;
47844;SDS011;33605;48.822;8.796;2023-05-19T04:31:12;4.93;;;2.60;;
47844;SDS011;33605;48.822;8.796;2023-05-19T04:33:38;4.80;;;2.87;;
47844;SDS011;33605;48.822;8.796;2023-05-19T04:36:05;4.33;;;2.60;;
47844;SDS011;33605;48.822;8.796;2023-05-19T04:38:36;3.27;;;2.50;;
47844;SDS011;33605;48.822;8.796;2023-05-19T04:41:03;4.53;;;3.50;;
47844;SDS011;33605;48.822;8.796;2023-05-19T04:43:30;7.30;;;2.97;;
47844;SDS011;33605;48.822;8.796;2023-05-19T04:45:56;5.07;;;2.80;;
47844;SDS011;33605;48.822;8.796;2023-05-19T04:48:22;4.00;;;2.50;;
47844;SDS011;33605;48.822;8.796;2023-05-19T04:50:48;4.27;;;2.97;;
47844;SDS011;33605;48.822;8.796;2023-05-19T04:53:16;6.70;;;3.13;;
47844;SDS011;33605;48.822;8.796;2023-05-19T04:55:42;6.70;;;3.20;;
47844;SDS011;33605;48.822;8.796;2023-05-19T04:58:08;8.37;;;3.43;;
47844;SDS011;33605;48.822;8.796;2023-05-19T05:00:35;2.90;;;2.60;;
47844;SDS011;33605;48.822;8.796;2023-05-19T05:03:02;3.90;;;2.73;;
47844;SDS011;33605;48.822;8.796;2023-05-19T05:05:29;4.90;;;3.03;;
47844;SDS011;33605;48.822;8.796;2023-05-19T05:07:55;4.80;;;2.70;;
47844;SDS011;33605;48.822;8.796;2023-05-19T05:10:21;3.60;;;3.20;;
47844;SDS011;33605;48.822;8.796;2023-05-19T05:12:47;6.13;;;3.00;;
47844;SDS011;33605;48.822;8.796;2023-05-19T05:15:14;4.10;;;2.40;;
47844;SDS011;33605;48.822;8.796;2023-05-19T05:17:40;5.03;;;2.80;;
47844;SDS011;33605;48.822;8.796;2023-05-19T05:20:06;4.50;;;2.57;;
47844;SDS011;33605;48.822;8.796;2023-05-19T05:22:32;4.97;;;2.60;;
47844;SDS011;33605;48.822;8.796;2023-05-19T05:24:59;4.63;;;2.57;;
47844;SDS011;33605;48.822;8.796;2023-05-19T05:27:25;4.60;;;2.60;;
47844;SDS011;33605;48.822;8.796;2023-05-19T05:29:52;4.03;;;2.50;;
47844;SDS011;33605;48.822;8.796;2023-05-19T05:32:18;5.00;;;3.23;;
47844;SDS011;33605;48.822;8.796;2023-05-19T05:34:44;5.00;;;2.67;;
47844;SDS011;33605;48.822;8.796;2023-05-19T05:37:10;5.23;;;2.80;;
47844;SDS011;33605;48.822;8.796;2023-05-19T05:39:36;6.17;;;2.77;;
47844;SDS011;33605;48.822;8.796;2023-05-19T05:42:02;6.90;;;3.17;;
47844;SDS011;33605;48.822;8.796;2023-05-19T05:44:28;5.13;;;3.27;;
47844;SDS011;33605;48.822;8.796;2023-05-19T05:46:54;7.00;;;3.23;;
47844;SDS011;33605;48.822;8.796;2023-05-19T05:49:20;4.40;;;2.50;;
47844;SDS011;33605;48.822;8.796;2023-05-19T05:51:46;3.50;;;3.00;;
47844;SDS011;33605;48.822;8.796;2023-05-19T05:54:12;6.33;;;3.13;;
47844;SDS011;33605;48.822;8.796;2023-05-19T05:56:40;3.50;;;2.70;;
47844;SDS011;33605;48.822;8.796;2023-05-19T05:59:06;4.37;;;2.87;;
47844;SDS011;33605;48.822;8.796;2023-05-19T06:01:32;6.23;;;3.70;;
47844;SDS011;33605;48.822;8.796;2023-05-19T06:03:59;2.83;;;2.63;;
47844;SDS011;33605;48.822;8.796;2023-05-19T06:06:25;5.50;;;3.07;;
47844;SDS011;33605;48.822;8.796;2023-05-19T06:08:51;4.80;;;3.20;;
47844;SDS011;33605;48.822;8.796;2023-05-19T06:11:17;6.43;;;3.20;;
47844;SDS011;33605;48.822;8.796;2023-05-19T06:13:43;4.83;;;2.83;;
47844;SDS011;33605;48.822;8.796;2023-05-19T06:16:09;11.80;;;3.20;;
47844;SDS011;33605;48.822;8.796;2023-05-19T06:18:35;5.50;;;3.67;;
47844;SDS011;33605;48.822;8.796;2023-05-19T06:21:01;7.60;;;3.23;;
47844;SDS011;33605;48.822;8.796;2023-05-19T06:23:29;5.80;;;3.50;;
47844;SDS011;33605;48.822;8.796;2023-05-19T06:25:55;9.90;;;3.50;;
47844;SDS011;33605;48.822;8.796;2023-05-19T06:28:21;5.80;;;2.83;;
47844;SDS011;33605;48.822;8.796;2023-05-19T06:30:47;8.40;;;2.70;;
47844;SDS011;33605;48.822;8.796;2023-05-19T06:33:13;3.50;;;2.97;;
47844;SDS011;33605;48.822;8.796;2023-05-19T06:35:39;3.87;;;2.90;;
47844;SDS011;33605;48.822;8.796;2023-05-19T06:38:05;7.10;;;3.40;;
47844;SDS011;33605;48.822;8.796;2023-05-19T06:40:31;6.30;;;3.30;;
47844;SDS011;33605;48.822;8.796;2023-05-19T06:42:57;8.93;;;3.87;;
47844;SDS011;33605;48.822;8.796;2023-05-19T06:45:23;4.80;;;3.60;;
47844;SDS011;33605;48.822;8.796;2023-05-19T06:47:49;7.40;;;3.70;;
47844;SDS011;33605;48.822;8.796;2023-05-19T06:50:15;4.73;;;2.90;;
47844;SDS011;33605;48.822;8.796;2023-05-19T06:52:41;7.10;;;3.80;;
47844;SDS011;33605;48.822;8.796;2023-05-19T06:55:08;6.80;;;3.40;;
47844;SDS011;33605;48.822;8.796;2023-05-19T06:57:34;6.77;;;4.23;;
47844;SDS011;33605;48.822;8.796;2023-05-19T07:00:00;4.73;;;3.40;;
47844;SDS011;33605;48.822;8.796;2023-05-19T07:02:27;4.20;;;3.20;;
47844;SDS011;33605;48.822;8.796;2023-05-19T07:04:53;9.43;;;3.73;;
47844;SDS011;33605;48.822;8.796;2023-05-19T07:07:21;8.83;;;4.07;;
47844;SDS011;33605;48.822;8.796;2023-05-19T07:09:47;6.67;;;3.30;;
47844;SDS011;33605;48.822;8.796;2023-05-19T07:12:13;4.60;;;2.87;;
47844;SDS011;33605;48.822;8.796;2023-05-19T07:14:39;5.93;;;4.10;;
47844;SDS011;33605;48.822;8.796;2023-05-19T07:17:05;7.43;;;3.90;;
47844;SDS011;33605;48.822;8.796;2023-05-19T07:19:31;6.03;;;3.67;;
47844;SDS011;33605;48.822;8.796;2023-05-19T07:21:57;6.50;;;3.60;;
47844;SDS011;33605;48.822;8.796;2023-05-19T07:24:23;8.73;;;3.73;;
47844;SDS011;33605;48.822;8.796;2023-05-19T07:26:51;5.90;;;3.23;;
47844;SDS011;33605;48.822;8.796;2023-05-19T07:29:17;5.80;;;3.10;;
47844;SDS011;33605;48.822;8.796;2023-05-19T07:31:43;4.70;;;3.20;;
47844;SDS011;33605;48.822;8.796;2023-05-19T07:34:09;4.40;;;3.47;;
47844;SDS011;33605;48.822;8.796;2023-05-19T07:36:35;5.63;;;3.60;;
47844;SDS011;33605;48.822;8.796;2023-05-19T07:39:01;3.53;;;2.77;;
47844;SDS011;33605;48.822;8.796;2023-05-19T07:41:27;6.13;;;3.30;;
47844;SDS011;33605;48.822;8.796;2023-05-19T07:43:53;6.30;;;3.20;;
47844;SDS011;33605;48.822;8.796;2023-05-19T07:46:19;6.90;;;4.30;;
47844;SDS011;33605;48.822;8.796;2023-05-19T07:48:46;6.00;;;3.87;;
47844;SDS011;33605;48.822;8.796;2023-05-19T07:51:12;7.00;;;3.80;;
47844;SDS011;33605;48.822;8.796;2023-05-19T07:53:38;7.83;;;3.87;;
47844;SDS011;33605;48.822;8.796;2023-05-19T07:56:04;5.63;;;3.40;;
47844;SDS011;33605;48.822;8.796;2023-05-19T07:58:30;8.90;;;3.90;;
47844;SDS011;33605;48.822;8.796;2023-05-19T08:00:56;5.30;;;3.30;;
47844;SDS011;33605;48.822;8.796;2023-05-19T08:03:23;4.50;;;3.10;;
47844;SDS011;33605;48.822;8.796;2023-05-19T08:05:49;6.03;;;3.40;;
47844;SDS011;33605;48.822;8.796;2023-05-19T08:08:15;8.23;;;3.80;;
47844;SDS011;33605;48.822;8.796;2023-05-19T08:10:43;16.93;;;3.70;;
47844;SDS011;33605;48.822;8.796;2023-05-19T08:13:09;4.47;;;3.60;;
47844;SDS011;33605;48.822;8.796;2023-05-19T08:15:35;7.10;;;3.30;;
47844;SDS011;33605;48.822;8.796;2023-05-19T08:18:01;6.90;;;2.83;;
47844;SDS011;33605;48.822;8.796;2023-05-19T08:20:29;7.47;;;3.90;;
47844;SDS011;33605;48.822;8.796;2023-05-19T08:22:55;4.53;;;3.60;;
47844;SDS011;33605;48.822;8.796;2023-05-19T08:25:21;6.93;;;3.43;;
47844;SDS011;33605;48.822;8.796;2023-05-19T08:27:47;7.13;;;3.37;;
47844;SDS011;33605;48.822;8.796;2023-05-19T08:30:13;7.33;;;3.87;;
47844;SDS011;33605;48.822;8.796;2023-05-19T08:32:39;10.03;;;4.13;;
47844;SDS011;33605;48.822;8.796;2023-05-19T08:35:05;7.80;;;3.87;;
47844;SDS011;33605;48.822;8.796;2023-05-19T08:37:32;5.83;;;3.70;;
47844;SDS011;33605;48.822;8.796;2023-05-19T08:40:01;5.90;;;3.13;;
47844;SDS011;33605;48.822;8.796;2023-05-19T08:42:28;9.43;;;3.73;;
47844;SDS011;33605;48.822;8.796;2023-05-19T08:44:56;6.53;;;4.03;;
47844;SDS011;33605;48.822;8.796;2023-05-19T08:47:22;9.30;;;3.97;;
47844;SDS011;33605;48.822;8.796;2023-05-19T08:49:51;9.30;;;3.70;;
47844;SDS011;33605;48.822;8.796;2023-05-19T08:54:49;8.40;;;3.63;;
47844;SDS011;33605;48.822;8.796;2023-05-19T08:57:16;3.87;;;3.40;;
47844;SDS011;33605;48.822;8.796;2023-05-19T08:59:42;17.63;;;3.87;;
47844;SDS011;33605;48.822;8.796;2023-05-19T09:02:09;7.10;;;3.80;;
47844;SDS011;33605;48.822;8.796;2023-05-19T09:04:35;9.07;;;4.17;;
47844;SDS011;33605;48.822;8.796;2023-05-19T09:07:02;5.77;;;3.73;;
47844;SDS011;33605;48.822;8.796;2023-05-19T09:09:28;9.27;;;4.53;;
47844;SDS011;33605;48.822;8.796;2023-05-19T09:11:54;5.80;;;3.67;;
47844;SDS011;33605;48.822;8.796;2023-05-19T09:14:20;5.60;;;3.40;;
47844;SDS011;33605;48.822;8.796;2023-05-19T09:16:47;5.97;;;3.70;;
47844;SDS011;33605;48.822;8.796;2023-05-19T09:19:16;6.97;;;3.53;;
47844;SDS011;33605;48.822;8.796;2023-05-19T09:21:42;10.03;;;4.30;;
47844;SDS011;33605;48.822;8.796;2023-05-19T09:24:09;4.77;;;3.30;;
47844;SDS011;33605;48.822;8.796;2023-05-19T09:26:41;7.20;;;3.83;;
47844;SDS011;33605;48.822;8.796;2023-05-19T09:29:11;5.60;;;3.97;;
47844;SDS011;33605;48.822;8.796;2023-05-19T09:31:37;6.23;;;3.37;;
47844;SDS011;33605;48.822;8.796;2023-05-19T09:34:03;4.87;;;4.03;;
47844;SDS011;33605;48.822;8.796;2023-05-19T09:36:29;6.73;;;3.40;;
47844;SDS011;33605;48.822;8.796;2023-05-19T09:38:55;6.97;;;3.83;;
47844;SDS011;33605;48.822;8.796;2023-05-19T09:41:21;7.43;;;3.80;;
47844;SDS011;33605;48.822;8.796;2023-05-19T09:43:53;6.67;;;3.13;;
47844;SDS011;33605;48.822;8.796;2023-05-19T09:46:23;4.70;;;3.47;;
47844;SDS011;33605;48.822;8.796;2023-05-19T09:48:56;5.50;;;3.67;;
47844;SDS011;33605;48.822;8.796;2023-05-19T09:51:22;9.67;;;3.90;;
47844;SDS011;33605;48.822;8.796;2023-05-19T09:53:49;5.77;;;3.00;;
47844;SDS011;33605;48.822;8.796;2023-05-19T09:56:15;6.97;;;3.60;;
47844;SDS011;33605;48.822;8.796;2023-05-19T09:58:41;7.87;;;3.77;;
47844;SDS011;33605;48.822;8.796;2023-05-19T10:01:07;5.40;;;3.30;;
47844;SDS011;33605;48.822;8.796;2023-05-19T10:03:33;8.87;;;3.93;;
47844;SDS011;33605;48.822;8.796;2023-05-19T10:06:00;24.93;;;5.23;;
47844;SDS011;33605;48.822;8.796;2023-05-19T10:08:27;6.73;;;3.27;;
47844;SDS011;33605;48.822;8.796;2023-05-19T10:10:54;5.03;;;3.40;;
47844;SDS011;33605;48.822;8.796;2023-05-19T10:13:20;6.23;;;3.23;;
47844;SDS011;33605;48.822;8.796;2023-05-19T10:15:47;5.00;;;3.30;;
47844;SDS011;33605;48.822;8.796;2023-05-19T10:18:16;5.27;;;3.43;;
47844;SDS011;33605;48.822;8.796;2023-05-19T10:20:43;9.30;;;3.77;;
47844;SDS011;33605;48.822;8.796;2023-05-19T10:23:09;7.53;;;3.70;;
47844;SDS011;33605;48.822;8.796;2023-05-19T10:25:34;5.60;;;3.60;;
47844;SDS011;33605;48.822;8.796;2023-05-19T10:28:06;6.27;;;3.00;;
47844;SDS011;33605;48.822;8.796;2023-05-19T10:30:44;4.87;;;3.33;;
47844;SDS011;33605;48.822;8.796;2023-05-19T10:33:12;7.13;;;3.93;;
47844;SDS011;33605;48.822;8.796;2023-05-19T10:40:40;8.03;;;3.27;;
47844;SDS011;33605;48.822;8.796;2023-05-19T10:45:38;7.33;;;3.53;;
47844;SDS011;33605;48.822;8.796;2023-05-19T10:48:10;4.43;;;3.27;;
47844;SDS011;33605;48.822;8.796;2023-05-19T10:50:36;4.20;;;2.93;;
47844;SDS011;33605;48.822;8.796;2023-05-19T10:53:02;7.87;;;3.20;;
47844;SDS011;33605;48.822;8.796;2023-05-19T10:55:44;7.23;;;2.90;;
47844;SDS011;33605;48.822;8.796;2023-05-19T10:58:13;4.67;;;3.00;;
47844;SDS011;33605;48.822;8.796;2023-05-19T11:00:39;4.83;;;3.30;;
47844;SDS011;33605;48.822;8.796;2023-05-19T11:03:16;4.43;;;2.97;;
47844;SDS011;33605;48.822;8.796;2023-05-19T11:05:45;7.57;;;2.90;;
47844;SDS011;33605;48.822;8.796;2023-05-19T11:08:14;8.33;;;3.73;;
47844;SDS011;33605;48.822;8.796;2023-05-19T11:10:45;4.60;;;3.10;;
47844;SDS011;33605;48.822;8.796;2023-05-19T11:13:17;4.07;;;2.80;;
47844;SDS011;33605;48.822;8.796;2023-05-19T11:15:44;5.60;;;3.07;;
47844;SDS011;33605;48.822;8.796;2023-05-19T11:18:10;6.80;;;3.43;;
47844;SDS011;33605;48.822;8.796;2023-05-19T11:20:39;3.90;;;2.93;;
47844;SDS011;33605;48.822;8.796;2023-05-19T11:23:06;5.70;;;2.90;;
47844;SDS011;33605;48.822;8.796;2023-05-19T11:25:45;8.50;;;2.90;;
47844;SDS011;33605;48.822;8.796;2023-05-19T11:28:16;4.60;;;3.47;;
47844;SDS011;33605;48.822;8.796;2023-05-19T11:30:44;7.30;;;3.60;;
47844;SDS011;33605;48.822;8.796;2023-05-19T11:33:10;5.97;;;4.67;;
47844;SDS011;33605;48.822;8.796;2023-05-19T11:35:37;9.93;;;3.77;;
47844;SDS011;33605;48.822;8.796;2023-05-19T11:38:04;5.23;;;3.93;;
47844;SDS011;33605;48.822;8.796;2023-05-19T11:40:30;6.73;;;3.57;;
47844;SDS011;33605;48.822;8.796;2023-05-19T11:42:57;5.23;;;2.97;;
47844;SDS011;33605;48.822;8.796;2023-05-19T11:45:30;7.20;;;3.80;;
47844;SDS011;33605;48.822;8.796;2023-05-19T11:47:57;6.77;;;4.10;;
47844;SDS011;33605;48.822;8.796;2023-05-19T11:50:23;10.53;;;3.40;;
47844;SDS011;33605;48.822;8.796;2023-05-19T11:52:50;9.23;;;3.63;;
47844;SDS011;33605;48.822;8.796;2023-05-19T11:55:20;6.87;;;2.90;;
47844;SDS011;33605;48.822;8.796;2023-05-19T11:57:50;3.50;;;2.57;;
47844;SDS011;33605;48.822;8.796;2023-05-19T12:00:22;3.63;;;3.13;;
47844;SDS011;33605;48.822;8.796;2023-05-19T12:02:49;3.70;;;2.80;;
47844;SDS011;33605;48.822;8.796;2023-05-19T12:05:18;5.37;;;3.00;;
47844;SDS011;33605;48.822;8.796;2023-05-19T12:07:45;5.73;;;2.93;;
47844;SDS011;33605;48.822;8.796;2023-05-19T12:10:13;7.60;;;3.43;;
47844;SDS011;33605;48.822;8.796;2023-05-19T12:12:39;4.93;;;2.70;;
47844;SDS011;33605;48.822;8.796;2023-05-19T12:15:09;4.57;;;2.97;;
47844;SDS011;33605;48.822;8.796;2023-05-19T12:17:35;7.00;;;3.67;;
47844;SDS011;33605;48.822;8.796;2023-05-19T12:20:01;3.30;;;2.87;;
47844;SDS011;33605;48.822;8.796;2023-05-19T12:22:28;4.80;;;3.17;;
47844;SDS011;33605;48.822;8.796;2023-05-19T12:24:54;4.60;;;3.50;;
47844;SDS011;33605;48.822;8.796;2023-05-19T12:27:24;4.77;;;3.30;;
47844;SDS011;33605;48.822;8.796;2023-05-19T12:29:51;5.00;;;3.40;;
47844;SDS011;33605;48.822;8.796;2023-05-19T12:32:17;4.60;;;3.17;;
47844;SDS011;33605;48.822;8.796;2023-05-19T12:34:43;6.57;;;3.20;;
47844;SDS011;33605;48.822;8.796;2023-05-19T12:37:09;5.27;;;3.70;;
47844;SDS011;33605;48.822;8.796;2023-05-19T12:39:35;5.00;;;3.77;;
47844;SDS011;33605;48.822;8.796;2023-05-19T12:42:02;8.83;;;3.50;;
47844;SDS011;33605;48.822;8.796;2023-05-19T12:44:29;7.30;;;3.60;;
47844;SDS011;33605;48.822;8.796;2023-05-19T12:46:58;4.60;;;3.43;;
47844;SDS011;33605;48.822;8.796;2023-05-19T12:49:24;6.37;;;3.83;;
47844;SDS011;33605;48.822;8.796;2023-05-19T12:51:51;4.63;;;3.73;;
47844;SDS011;33605;48.822;8.796;2023-05-19T12:54:18;5.83;;;3.47;;
47844;SDS011;33605;48.822;8.796;2023-05-19T12:56:48;6.50;;;3.50;;
47844;SDS011;33605;48.822;8.796;2023-05-19T12:59:21;8.40;;;3.87;;
47844;SDS011;33605;48.822;8.796;2023-05-19T13:01:56;4.80;;;3.37;;
47844;SDS011;33605;48.822;8.796;2023-05-19T13:04:25;5.53;;;3.73;;
47844;SDS011;33605;48.822;8.796;2023-05-19T13:06:52;6.33;;;4.10;;
47844;SDS011;33605;48.822;8.796;2023-05-19T13:09:18;8.97;;;3.40;;
47844;SDS011;33605;48.822;8.796;2023-05-19T13:11:45;6.73;;;4.20;;
47844;SDS011;33605;48.822;8.796;2023-05-19T13:14:18;4.10;;;3.70;;
47844;SDS011;33605;48.822;8.796;2023-05-19T13:16:45;10.07;;;4.07;;
47844;SDS011;33605;48.822;8.796;2023-05-19T13:19:16;17.33;;;5.10;;
47844;SDS011;33605;48.822;8.796;2023-05-19T13:21:42;8.40;;;4.80;;
47844;SDS011;33605;48.822;8.796;2023-05-19T13:24:11;11.97;;;4.73;;
47844;SDS011;33605;48.822;8.796;2023-05-19T13:26:37;5.13;;;4.10;;
47844;SDS011;33605;48.822;8.796;2023-05-19T13:29:03;13.27;;;4.90;;
47844;SDS011;33605;48.822;8.796;2023-05-19T13:31:29;12.43;;;4.30;;
47844;SDS011;33605;48.822;8.796;2023-05-19T13:33:55;17.23;;;9.37;;
47844;SDS011;33605;48.822;8.796;2023-05-19T13:36:21;12.60;;;8.63;;
47844;SDS011;33605;48.822;8.796;2023-05-19T13:38:47;12.67;;;7.83;;
47844;SDS011;33605;48.822;8.796;2023-05-19T13:41:13;6.90;;;4.93;;
47844;SDS011;33605;48.822;8.796;2023-05-19T13:43:39;6.63;;;4.50;;
47844;SDS011;33605;48.822;8.796;2023-05-19T13:46:05;18.60;;;8.10;;
47844;SDS011;33605;48.822;8.796;2023-05-19T13:48:31;8.67;;;5.57;;
47844;SDS011;33605;48.822;8.796;2023-05-19T13:50:57;6.57;;;3.93;;
47844;SDS011;33605;48.822;8.796;2023-05-19T13:53:23;6.63;;;4.10;;
47844;SDS011;33605;48.822;8.796;2023-05-19T13:55:50;5.83;;;3.57;;
47844;SDS011;33605;48.822;8.796;2023-05-19T13:58:19;5.53;;;3.67;;
47844;SDS011;33605;48.822;8.796;2023-05-19T14:00:45;6.93;;;4.60;;
47844;SDS011;33605;48.822;8.796;2023-05-19T14:03:11;5.27;;;3.93;;
47844;SDS011;33605;48.822;8.796;2023-05-19T14:05:39;11.73;;;4.43;;
47844;SDS011;33605;48.822;8.796;2023-05-19T14:08:05;6.13;;;4.27;;
47844;SDS011;33605;48.822;8.796;2023-05-19T14:10:32;6.23;;;3.90;;
47844;SDS011;33605;48.822;8.796;2023-05-19T14:12:58;6.33;;;4.27;;
47844;SDS011;33605;48.822;8.796;2023-05-19T14:15:24;5.20;;;4.00;;
47844;SDS011;33605;48.822;8.796;2023-05-19T14:17:50;18.17;;;7.70;;
47844;SDS011;33605;48.822;8.796;2023-05-19T14:20:17;7.23;;;4.40;;
47844;SDS011;33605;48.822;8.796;2023-05-19T14:22:43;8.53;;;5.90;;
47844;SDS011;33605;48.822;8.796;2023-05-19T14:25:09;34.67;;;14.50;;
47844;SDS011;33605;48.822;8.796;2023-05-19T14:27:35;19.77;;;9.30;;
47844;SDS011;33605;48.822;8.796;2023-05-19T14:30:03;18.57;;;6.70;;
47844;SDS011;33605;48.822;8.796;2023-05-19T14:32:30;24.63;;;11.30;;
47844;SDS011;33605;48.822;8.796;2023-05-19T14:34:56;29.53;;;13.23;;
47844;SDS011;33605;48.822;8.796;2023-05-19T14:37:22;28.73;;;12.27;;
47844;SDS011;33605;48.822;8.796;2023-05-19T14:39:50;35.07;;;15.87;;
47844;SDS011;33605;48.822;8.796;2023-05-19T14:42:16;30.63;;;11.70;;
47844;SDS011;33605;48.822;8.796;2023-05-19T14:44:42;48.93;;;18.17;;
47844;SDS011;33605;48.822;8.796;2023-05-19T14:47:08;12.17;;;6.30;;
47844;SDS011;33605;48.822;8.796;2023-05-19T14:49:35;11.00;;;5.80;;
47844;SDS011;33605;48.822;8.796;2023-05-19T14:52:01;24.30;;;10.50;;
47844;SDS011;33605;48.822;8.796;2023-05-19T14:54:27;19.83;;;8.13;;
47844;SDS011;33605;48.822;8.796;2023-05-19T14:56:53;32.83;;;11.83;;
47844;SDS011;33605;48.822;8.796;2023-05-19T14:59:19;28.53;;;12.07;;
47844;SDS011;33605;48.822;8.796;2023-05-19T15:01:45;13.77;;;6.57;;
47844;SDS011;33605;48.822;8.796;2023-05-19T15:04:11;12.33;;;5.03;;
47844;SDS011;33605;48.822;8.796;2023-05-19T15:06:37;27.13;;;8.77;;
47844;SDS011;33605;48.822;8.796;2023-05-19T15:09:03;26.90;;;10.50;;
47844;SDS011;33605;48.822;8.796;2023-05-19T15:11:29;21.37;;;6.77;;